createdAt,value
2022-08-03T00:00:40.235Z,26.80
2022-08-03T00:03:10.192Z,26.80
2022-08-03T00:05:40.146Z,26.70
2022-08-03T00:08:28.841Z,26.70
2022-08-03T00:10:57.398Z,26.70
2022-08-03T00:13:26.566Z,26.60
2022-08-03T00:15:55.583Z,26.70
2022-08-03T00:18:26.000Z,26.60
2022-08-03T00:20:55.692Z,26.60
2022-08-03T00:23:24.188Z,26.60
2022-08-03T00:25:53.247Z,26.60
2022-08-03T00:28:21.869Z,26.50
2022-08-03T00:30:52.503Z,26.50
2022-08-03T00:33:21.164Z,26.50
2022-08-03T00:35:52.929Z,26.50
2022-08-03T00:38:22.063Z,26.50
2022-08-03T00:40:50.556Z,26.50
2022-08-03T00:43:19.378Z,26.40
2022-08-03T00:45:48.074Z,26.40
2022-08-03T00:48:29.483Z,26.40
2022-08-03T00:51:04.039Z,26.40
2022-08-03T00:53:33.686Z,26.40
2022-08-03T00:56:02.791Z,26.30
2022-08-03T00:58:31.367Z,26.30
2022-08-03T01:01:00.174Z,26.30
2022-08-03T01:03:28.766Z,26.30
2022-08-03T01:06:06.023Z,26.30
2022-08-03T01:08:52.850Z,26.20
2022-08-03T01:11:30.861Z,26.20
2022-08-03T01:14:18.682Z,26.20
2022-08-03T01:16:58.465Z,26.20
2022-08-03T01:19:45.420Z,26.20
2022-08-03T01:22:52.225Z,26.10
2022-08-03T01:25:36.387Z,26.10
2022-08-03T01:28:30.657Z,26.10
2022-08-03T01:31:08.140Z,26.10
2022-08-03T01:33:41.001Z,26.10
2022-08-03T01:36:14.668Z,26.00
2022-08-03T01:38:48.094Z,26.00
2022-08-03T01:41:22.416Z,26.00
2022-08-03T01:44:03.077Z,26.00
2022-08-03T01:46:47.702Z,26.00
2022-08-03T01:49:18.975Z,25.90
2022-08-03T01:52:03.617Z,25.90
2022-08-03T01:54:36.938Z,25.90
2022-08-03T01:57:06.248Z,25.90
2022-08-03T01:59:37.172Z,25.90
2022-08-03T02:02:19.515Z,25.80
2022-08-03T02:04:58.642Z,25.90
2022-08-03T02:07:30.371Z,25.80
2022-08-03T02:10:01.565Z,25.80
2022-08-03T02:12:32.973Z,25.80
2022-08-03T02:15:03.344Z,25.80
2022-08-03T02:17:40.114Z,25.80
2022-08-03T02:20:12.214Z,25.80
2022-08-03T02:22:43.508Z,25.70
2022-08-03T02:25:15.223Z,25.70
2022-08-03T02:27:52.781Z,25.60
2022-08-03T02:30:21.695Z,25.60
2022-08-03T02:32:57.034Z,25.70
2022-08-03T02:35:28.289Z,25.60
2022-08-03T02:38:02.487Z,25.60
2022-08-03T02:40:32.607Z,25.60
2022-08-03T02:43:06.747Z,25.60
2022-08-03T02:45:40.586Z,25.60
2022-08-03T02:48:17.512Z,25.60
2022-08-03T02:50:47.016Z,25.60
2022-08-03T02:53:18.788Z,25.50
2022-08-03T02:55:49.697Z,25.50
2022-08-03T02:58:22.330Z,25.50
2022-08-03T03:00:53.031Z,25.40
2022-08-03T03:03:25.621Z,25.50
2022-08-03T03:05:57.641Z,25.40
2022-08-03T03:08:28.904Z,25.40
2022-08-03T03:11:00.675Z,25.40
2022-08-03T03:13:31.801Z,25.40
2022-08-03T03:16:04.869Z,25.40
2022-08-03T03:18:36.133Z,25.40
2022-08-03T03:21:06.042Z,25.30
2022-08-03T03:23:38.431Z,25.30
2022-08-03T03:26:07.643Z,25.30
2022-08-03T03:28:38.085Z,25.30
2022-08-03T03:31:07.910Z,25.30
2022-08-03T03:33:39.411Z,25.30
2022-08-03T03:36:08.874Z,25.30
2022-08-03T03:38:37.981Z,25.30
2022-08-03T03:41:07.058Z,25.20
2022-08-03T03:43:36.034Z,25.20
2022-08-03T03:46:05.022Z,25.20
2022-08-03T03:48:33.665Z,25.20
2022-08-03T03:51:04.574Z,25.10
2022-08-03T03:53:33.135Z,25.20
2022-08-03T03:56:03.018Z,25.20
2022-08-03T03:58:33.732Z,25.10
2022-08-03T04:01:03.009Z,25.10
2022-08-03T04:03:31.824Z,25.10
2022-08-03T04:06:17.729Z,25.10
2022-08-03T04:09:13.311Z,25.10
2022-08-03T04:11:47.114Z,25.00
2022-08-03T04:14:21.028Z,25.00
2022-08-03T04:17:01.198Z,25.00
2022-08-03T04:19:35.680Z,25.00
2022-08-03T04:22:08.947Z,25.00
2022-08-03T04:24:43.712Z,25.00
2022-08-03T04:27:16.018Z,25.00
2022-08-03T04:29:49.019Z,25.00
2022-08-03T04:32:18.772Z,25.00
2022-08-03T04:34:48.311Z,25.00
2022-08-03T04:37:28.367Z,25.00
2022-08-03T04:39:59.968Z,25.00
2022-08-03T04:42:29.185Z,24.90
2022-08-03T04:45:01.586Z,25.00
2022-08-03T04:47:33.799Z,25.00
2022-08-03T04:50:03.789Z,25.00
2022-08-03T04:52:32.553Z,25.00
2022-08-03T04:55:02.999Z,24.90
2022-08-03T04:57:31.750Z,24.90
2022-08-03T05:00:03.036Z,24.90
2022-08-03T05:02:32.788Z,24.90
2022-08-03T05:05:01.685Z,25.00
2022-08-03T05:07:35.760Z,25.00
2022-08-03T05:10:14.929Z,25.00
2022-08-03T05:12:46.805Z,24.90
2022-08-03T05:15:15.922Z,25.00
2022-08-03T05:17:44.821Z,24.90
2022-08-03T05:20:16.541Z,25.00
2022-08-03T05:22:47.509Z,25.00
2022-08-03T05:25:19.943Z,25.00
2022-08-03T05:27:50.124Z,25.00
2022-08-03T05:30:27.246Z,25.00
2022-08-03T05:33:04.426Z,25.00
2022-08-03T05:36:01.033Z,25.00
2022-08-03T05:38:33.221Z,25.00
2022-08-03T05:41:22.294Z,25.10
2022-08-03T05:43:53.811Z,25.10
2022-08-03T05:46:23.229Z,25.10
2022-08-03T05:48:52.382Z,25.10
2022-08-03T05:51:21.059Z,25.10
2022-08-03T05:53:49.740Z,25.10
2022-08-03T05:56:23.604Z,25.20
2022-08-03T05:58:53.231Z,25.20
2022-08-03T06:01:22.970Z,25.20
2022-08-03T06:03:52.338Z,25.20
2022-08-03T06:06:21.186Z,25.20
2022-08-03T06:08:49.808Z,25.30
2022-08-03T06:11:20.206Z,25.30
2022-08-03T06:13:48.762Z,25.30
2022-08-03T06:16:17.304Z,25.30
2022-08-03T06:18:46.365Z,25.40
2022-08-03T06:21:16.277Z,25.40
2022-08-03T06:23:53.499Z,25.40
2022-08-03T06:26:29.348Z,25.40
2022-08-03T06:28:58.345Z,25.40
2022-08-03T06:31:32.903Z,25.40
2022-08-03T06:34:32.503Z,25.50
2022-08-03T06:36:58.487Z,25.50
2022-08-03T06:39:30.899Z,25.60
2022-08-03T06:42:00.817Z,25.60
2022-08-03T06:44:29.364Z,25.60
2022-08-03T06:46:58.685Z,25.60
2022-08-03T06:49:27.781Z,25.70
2022-08-03T06:52:04.118Z,25.70
2022-08-03T06:54:36.890Z,25.70
2022-08-03T06:57:09.713Z,25.80
2022-08-03T07:00:09.190Z,25.80
2022-08-03T07:02:28.599Z,25.90
2022-08-03T07:04:58.353Z,25.90
2022-08-03T07:07:27.372Z,25.90
2022-08-03T07:09:57.654Z,25.90
2022-08-03T07:12:30.654Z,26.00
2022-08-03T07:15:02.234Z,26.00
2022-08-03T07:17:33.471Z,26.10
2022-08-03T07:20:05.322Z,26.10
2022-08-03T07:22:33.907Z,26.20
2022-08-03T07:25:02.611Z,26.20
2022-08-03T07:27:32.635Z,26.30
2022-08-03T07:30:01.544Z,26.30
2022-08-03T07:32:31.627Z,26.40
2022-08-03T07:35:01.593Z,26.40
2022-08-03T07:37:31.763Z,26.40
2022-08-03T07:40:00.661Z,26.50
2022-08-03T07:42:31.309Z,26.50
2022-08-03T07:45:00.702Z,26.60
2022-08-03T07:47:35.476Z,26.60
2022-08-03T07:50:08.695Z,26.70
2022-08-03T07:52:49.667Z,26.80
2022-08-03T07:55:19.571Z,26.80
2022-08-03T07:58:00.899Z,26.90
2022-08-03T08:00:29.515Z,26.90
2022-08-03T08:02:58.224Z,27.00
2022-08-03T08:05:28.019Z,27.10
2022-08-03T08:07:56.587Z,27.20
2022-08-03T08:10:25.211Z,27.20
2022-08-03T08:12:55.392Z,27.30
2022-08-03T08:15:24.156Z,27.40
2022-08-03T08:17:55.172Z,27.50
2022-08-03T08:20:27.123Z,27.60
2022-08-03T08:23:00.260Z,27.60
2022-08-03T08:25:31.485Z,27.70
2022-08-03T08:28:29.286Z,27.80
2022-08-03T08:30:52.402Z,27.90
2022-08-03T08:33:22.329Z,28.00
2022-08-03T08:35:51.673Z,28.10
2022-08-03T08:38:20.317Z,28.20
2022-08-03T08:40:52.727Z,28.20
2022-08-03T08:43:23.096Z,28.30
2022-08-03T08:45:53.545Z,28.40
2022-08-03T08:48:27.090Z,28.40
2022-08-03T08:50:57.260Z,28.50
2022-08-03T08:53:30.272Z,28.60
2022-08-03T08:56:01.825Z,28.60
2022-08-03T08:58:39.259Z,28.70
2022-08-03T09:01:08.417Z,28.80
2022-08-03T09:03:37.457Z,28.90
2022-08-03T09:06:06.826Z,28.90
2022-08-03T09:08:35.966Z,29.00
2022-08-03T09:11:04.686Z,29.10
2022-08-03T09:13:35.262Z,29.10
2022-08-03T09:16:18.623Z,29.20
2022-08-03T09:18:50.794Z,29.30
2022-08-03T09:21:34.184Z,29.40
2022-08-03T09:24:10.237Z,29.40
2022-08-03T09:26:53.673Z,29.50
2022-08-03T09:29:24.295Z,29.60
2022-08-03T09:32:04.067Z,29.60
2022-08-03T09:34:33.533Z,29.70
2022-08-03T09:37:02.171Z,29.70
2022-08-03T09:39:42.074Z,29.90
2022-08-03T09:42:15.012Z,29.90
2022-08-03T09:44:47.397Z,30.00
2022-08-03T09:47:18.694Z,30.00
2022-08-03T09:50:02.153Z,30.10
2022-08-03T09:52:48.351Z,30.10
2022-08-03T09:56:33.878Z,30.20
2022-08-03T09:58:12.728Z,30.30
2022-08-03T10:00:58.367Z,30.30
2022-08-03T10:03:29.651Z,30.40
2022-08-03T10:06:00.148Z,30.50
2022-08-03T10:08:29.073Z,30.50
2022-08-03T10:10:58.757Z,30.60
2022-08-03T10:13:27.354Z,30.60
2022-08-03T10:16:24.942Z,30.70
2022-08-03T10:18:46.021Z,30.70
2022-08-03T10:21:18.696Z,30.80
2022-08-03T10:23:48.014Z,30.80
2022-08-03T10:26:23.826Z,30.90
2022-08-03T10:28:55.261Z,30.90
2022-08-03T10:31:26.269Z,31.00
2022-08-03T10:33:59.413Z,31.10
2022-08-03T10:36:31.998Z,31.10
2022-08-03T10:39:02.745Z,31.20
2022-08-03T10:41:47.269Z,31.20
2022-08-03T10:44:20.712Z,31.20
2022-08-03T10:46:52.190Z,31.30
2022-08-03T10:49:34.425Z,31.30
2022-08-03T10:52:13.647Z,31.40
2022-08-03T10:55:11.842Z,31.40
2022-08-03T10:57:58.843Z,31.50
2022-08-03T11:00:30.408Z,31.50
2022-08-03T11:03:14.000Z,31.60
2022-08-03T11:05:43.905Z,31.60
2022-08-03T11:08:36.758Z,31.60
2022-08-03T11:11:29.409Z,31.60
2022-08-03T11:14:00.684Z,31.70
2022-08-03T11:16:30.306Z,31.70
2022-08-03T11:19:03.204Z,31.80
2022-08-03T11:21:55.998Z,31.80
2022-08-03T11:25:02.199Z,31.80
2022-08-03T11:27:34.341Z,31.90
2022-08-03T11:30:07.656Z,31.90
2022-08-03T11:32:58.477Z,31.90
2022-08-03T11:35:30.817Z,32.00
2022-08-03T11:38:13.041Z,32.00
2022-08-03T11:40:45.173Z,32.10
2022-08-03T11:43:46.556Z,32.10
2022-08-03T11:46:29.390Z,32.20
2022-08-03T11:49:10.476Z,32.20
2022-08-03T11:51:42.096Z,32.20
2022-08-03T11:54:11.441Z,32.30
2022-08-03T11:56:48.725Z,32.30
2022-08-03T11:59:22.310Z,32.30
2022-08-03T12:01:51.829Z,32.30
2022-08-03T12:04:20.400Z,32.40
2022-08-03T12:07:03.769Z,32.40
2022-08-03T12:09:34.402Z,32.50
2022-08-03T12:12:03.218Z,32.50
2022-08-03T12:14:50.424Z,32.60
2022-08-03T12:17:20.896Z,32.60
2022-08-03T12:19:49.605Z,32.60
2022-08-03T12:22:33.303Z,32.60
2022-08-03T12:25:02.092Z,32.70
2022-08-03T12:27:30.662Z,32.80
2022-08-03T12:30:01.646Z,32.80
2022-08-03T12:32:31.317Z,32.80
2022-08-03T12:35:01.517Z,32.80
2022-08-03T12:37:32.518Z,32.90
2022-08-03T12:40:10.026Z,33.00
2022-08-03T12:42:41.312Z,33.00
2022-08-03T12:45:24.662Z,33.00
2022-08-03T12:47:56.117Z,33.00
2022-08-03T12:50:31.511Z,33.10
2022-08-03T12:53:04.642Z,33.20
2022-08-03T12:55:56.253Z,33.20
2022-08-03T12:58:34.997Z,33.20
2022-08-03T13:01:09.889Z,33.30
2022-08-03T13:03:45.825Z,33.40
2022-08-03T13:06:20.252Z,33.40
2022-08-03T13:08:51.986Z,33.40
2022-08-03T13:11:22.723Z,33.50
2022-08-03T13:13:51.893Z,33.50
2022-08-03T13:16:21.949Z,33.50
2022-08-03T13:18:51.969Z,33.60
2022-08-03T13:21:22.243Z,33.60
2022-08-03T13:23:52.172Z,33.70
2022-08-03T13:26:20.776Z,33.70
2022-08-03T13:28:49.565Z,33.80
2022-08-03T13:31:18.184Z,33.80
2022-08-03T13:33:48.409Z,33.80
2022-08-03T13:36:17.465Z,33.90
2022-08-03T13:38:46.091Z,33.90
2022-08-03T13:41:17.091Z,33.90
2022-08-03T13:43:46.054Z,33.90
2022-08-03T13:46:15.187Z,33.90
2022-08-03T13:48:43.734Z,33.90
2022-08-03T13:51:22.501Z,34.00
2022-08-03T13:53:53.290Z,34.00
2022-08-03T13:56:23.324Z,34.10
2022-08-03T13:58:51.836Z,34.10
2022-08-03T14:01:53.526Z,34.10
2022-08-03T14:04:15.158Z,34.20
2022-08-03T14:06:50.714Z,34.20
2022-08-03T14:09:19.376Z,34.30
2022-08-03T14:12:04.067Z,34.30
2022-08-03T14:14:37.433Z,34.30
2022-08-03T14:17:06.153Z,34.40
2022-08-03T14:19:40.577Z,34.40
2022-08-03T14:22:22.651Z,34.40
2022-08-03T14:24:51.236Z,34.40
2022-08-03T14:27:21.836Z,34.40
2022-08-03T14:29:50.782Z,34.50
2022-08-03T14:32:19.337Z,34.50
2022-08-03T14:34:47.911Z,34.50
2022-08-03T14:37:16.623Z,34.50
2022-08-03T14:40:02.384Z,34.50
2022-08-03T14:42:32.261Z,34.50
2022-08-03T14:45:04.798Z,34.40
2022-08-03T14:50:29.164Z,34.40
2022-08-03T14:50:37.961Z,34.40
2022-08-03T14:53:09.470Z,34.30
2022-08-03T14:55:38.985Z,34.30
2022-08-03T14:58:22.241Z,34.30
2022-08-03T15:00:52.940Z,34.30
2022-08-03T15:03:24.860Z,34.40
2022-08-03T15:05:55.121Z,34.40
2022-08-03T15:08:25.561Z,34.50
2022-08-03T15:10:54.845Z,34.50
2022-08-03T15:13:25.699Z,34.50
2022-08-03T15:15:54.191Z,34.50
2022-08-03T15:18:23.511Z,34.60
2022-08-03T15:20:52.359Z,34.60
2022-08-03T15:23:21.157Z,34.70
2022-08-03T15:26:28.766Z,34.70
2022-08-03T15:28:40.006Z,34.70
2022-08-03T15:31:08.681Z,34.70
2022-08-03T15:33:37.162Z,34.70
2022-08-03T15:36:06.458Z,34.80
2022-08-03T15:38:34.985Z,34.80
2022-08-03T15:41:03.641Z,34.80
2022-08-03T15:43:32.147Z,34.80
2022-08-03T15:46:28.203Z,34.80
2022-08-03T15:48:50.865Z,34.80
2022-08-03T15:51:19.720Z,34.80
2022-08-03T15:53:48.339Z,34.80
2022-08-03T15:56:18.810Z,34.80
2022-08-03T15:59:09.294Z,34.80
2022-08-03T16:01:37.849Z,34.80
2022-08-03T16:04:06.634Z,34.70
2022-08-03T16:06:36.578Z,34.70
2022-08-03T16:09:24.026Z,34.70
2022-08-03T16:11:56.653Z,34.60
2022-08-03T16:14:32.495Z,34.60
2022-08-03T16:17:08.020Z,34.60
2022-08-03T16:19:36.611Z,34.50
2022-08-03T16:22:08.339Z,34.50
2022-08-03T16:24:37.920Z,34.50
2022-08-03T16:27:17.257Z,34.40
2022-08-03T16:29:57.401Z,34.40
2022-08-03T16:32:27.339Z,34.40
2022-08-03T16:34:55.979Z,34.40
2022-08-03T16:37:39.983Z,34.30
2022-08-03T16:40:17.279Z,34.30
2022-08-03T16:42:48.635Z,34.30
2022-08-03T16:45:17.360Z,34.30
2022-08-03T16:47:47.396Z,34.20
2022-08-03T16:50:29.925Z,34.20
2022-08-03T16:52:58.786Z,34.20
2022-08-03T16:55:43.276Z,34.20
2022-08-03T16:58:19.426Z,34.20
2022-08-03T17:01:10.837Z,34.20
2022-08-03T17:04:02.444Z,34.20
2022-08-03T17:06:36.111Z,34.10
2022-08-03T17:09:08.732Z,34.10
2022-08-03T17:11:44.131Z,34.10
2022-08-03T17:14:22.020Z,34.10
2022-08-03T17:16:53.881Z,34.00
2022-08-03T17:19:26.431Z,34.00
2022-08-03T17:22:04.551Z,34.00
2022-08-03T17:24:41.021Z,34.00
2022-08-03T17:28:42.223Z,34.00
2022-08-03T17:30:09.768Z,34.00
2022-08-03T17:32:42.777Z,34.00
2022-08-03T17:35:22.832Z,34.00
2022-08-03T17:38:02.692Z,33.90
2022-08-03T17:40:34.881Z,33.90
2022-08-03T17:44:12.720Z,33.90
2022-08-03T17:45:55.711Z,34.00
2022-08-03T17:48:24.863Z,33.90
2022-08-03T17:51:01.660Z,33.90
2022-08-03T17:53:33.721Z,33.90
2022-08-03T17:56:38.877Z,33.90
2022-08-03T17:59:15.266Z,33.80
2022-08-03T18:02:29.523Z,33.80
2022-08-03T18:05:02.686Z,33.70
2022-08-03T18:08:00.830Z,33.70
2022-08-03T18:10:49.862Z,33.60
2022-08-03T18:13:25.316Z,33.60
2022-08-03T18:16:03.094Z,33.60
2022-08-03T18:18:37.468Z,33.60
2022-08-03T18:21:16.893Z,33.50
2022-08-03T18:24:00.542Z,33.40
2022-08-03T18:26:31.120Z,33.40
2022-08-03T18:29:03.394Z,33.40
2022-08-03T18:32:02.697Z,33.30
2022-08-03T18:34:33.282Z,33.30
2022-08-03T18:37:07.438Z,33.20
2022-08-03T18:39:50.331Z,33.20
2022-08-03T18:42:26.364Z,33.10
2022-08-03T18:44:56.187Z,33.10
2022-08-03T18:47:53.066Z,33.00
2022-08-03T18:50:30.714Z,33.00
2022-08-03T18:53:16.452Z,32.90
2022-08-03T18:56:02.268Z,32.80
2022-08-03T18:58:45.967Z,32.80
2022-08-03T19:01:57.706Z,32.70
2022-08-03T19:04:17.300Z,32.80
2022-08-03T19:07:04.210Z,32.70
2022-08-03T19:09:45.085Z,32.60
2022-08-03T19:12:28.093Z,32.60
2022-08-03T19:15:06.550Z,32.60
2022-08-03T19:17:50.318Z,32.50
2022-08-03T19:20:38.015Z,32.50
2022-08-03T19:23:14.136Z,32.40
2022-08-03T19:25:52.030Z,32.40
2022-08-03T19:28:48.289Z,32.40
2022-08-03T19:31:30.807Z,32.40
2022-08-03T19:34:09.575Z,32.30
2022-08-03T19:36:51.727Z,32.20
2022-08-03T19:39:25.700Z,32.20
2022-08-03T19:42:20.170Z,32.20
2022-08-03T19:45:01.955Z,32.20
2022-08-03T19:47:46.698Z,32.10
2022-08-03T19:50:16.247Z,32.10
2022-08-03T19:52:48.770Z,32.10
2022-08-03T19:55:19.145Z,32.00
2022-08-03T19:57:49.704Z,32.00
2022-08-03T20:00:26.523Z,32.00
2022-08-03T20:02:59.506Z,31.90
2022-08-03T20:05:29.033Z,31.90
2022-08-03T20:08:14.933Z,31.90
2022-08-03T20:10:51.365Z,31.90
2022-08-03T20:13:21.286Z,31.80
2022-08-03T20:18:39.915Z,31.80
2022-08-03T20:21:15.575Z,31.70
2022-08-03T20:24:03.371Z,31.70
2022-08-03T20:26:35.311Z,31.70
2022-08-03T20:29:10.239Z,31.70
2022-08-03T20:31:40.229Z,31.70
2022-08-03T20:34:09.206Z,31.60
2022-08-03T20:36:38.800Z,31.60
2022-08-03T20:39:09.071Z,31.60
2022-08-03T20:41:39.023Z,31.60
2022-08-03T20:44:08.059Z,31.60
2022-08-03T20:46:53.478Z,31.50
2022-08-03T20:49:31.434Z,31.50
2022-08-03T20:52:18.419Z,31.50
2022-08-03T20:54:48.981Z,31.40
2022-08-03T20:57:18.534Z,31.40
2022-08-03T20:59:51.085Z,31.40
2022-08-03T21:02:29.718Z,31.40
2022-08-03T21:05:03.767Z,31.40
2022-08-03T21:08:05.746Z,31.40
2022-08-03T21:10:33.994Z,31.30
2022-08-03T21:13:10.550Z,31.80
2022-08-03T21:13:17.800Z,31.30
2022-08-03T21:16:12.605Z,31.30
2022-08-03T21:18:46.845Z,31.30
2022-08-03T21:21:20.892Z,31.30
2022-08-03T21:23:54.668Z,31.30
2022-08-03T21:26:26.717Z,31.20
2022-08-03T21:28:57.664Z,31.20
2022-08-03T21:31:27.164Z,31.20
2022-08-03T21:34:01.332Z,31.20
2022-08-03T21:36:34.955Z,31.10
2022-08-03T21:39:09.509Z,31.20
2022-08-03T21:41:40.776Z,31.10
2022-08-03T21:44:10.168Z,31.10
2022-08-03T21:46:41.404Z,31.10
2022-08-03T21:50:05.316Z,31.10
2022-08-03T21:52:06.457Z,31.10
2022-08-03T21:54:38.087Z,31.00
2022-08-03T21:57:15.185Z,31.00
2022-08-03T21:59:53.621Z,31.00
2022-08-03T22:02:28.229Z,31.00
2022-08-03T22:05:00.172Z,30.90
2022-08-03T22:07:35.856Z,30.90
2022-08-03T22:10:07.693Z,30.90
2022-08-03T22:12:36.889Z,30.80
2022-08-03T22:15:09.076Z,30.80
2022-08-03T22:17:55.384Z,30.80
2022-08-03T22:20:26.516Z,30.70
2022-08-03T22:22:58.808Z,30.70
2022-08-03T22:25:31.102Z,30.70
2022-08-03T22:28:02.516Z,30.60
2022-08-03T22:30:33.059Z,30.60
2022-08-03T22:33:04.827Z,30.60
2022-08-03T22:35:46.463Z,30.60
2022-08-03T22:38:19.542Z,30.50
2022-08-03T22:40:51.148Z,30.50
2022-08-03T22:43:23.582Z,30.50
2022-08-03T22:46:09.496Z,30.40
2022-08-03T22:48:41.839Z,30.40
2022-08-03T22:51:11.251Z,30.40
2022-08-03T22:53:42.500Z,30.40
2022-08-03T22:56:12.107Z,30.30
2022-08-03T22:58:40.632Z,30.30
2022-08-03T23:01:11.526Z,30.30
2022-08-03T23:04:00.151Z,30.30
2022-08-03T23:06:35.913Z,30.30
2022-08-03T23:09:08.888Z,30.20
2022-08-03T23:11:45.504Z,30.20
2022-08-03T23:14:17.295Z,30.20
2022-08-03T23:16:47.842Z,30.20
2022-08-03T23:19:24.993Z,30.10
2022-08-03T23:22:02.929Z,30.10
2022-08-03T23:24:36.915Z,30.10
2022-08-03T23:27:07.900Z,30.10
2022-08-03T23:29:38.882Z,30.00
2022-08-03T23:32:08.897Z,30.00
2022-08-03T23:34:58.416Z,30.00
2022-08-03T23:37:27.943Z,29.90
2022-08-03T23:39:59.482Z,29.90
2022-08-03T23:42:29.407Z,29.90
2022-08-03T23:45:01.102Z,29.90
2022-08-03T23:47:46.896Z,29.80
2022-08-03T23:50:16.424Z,29.80
2022-08-03T23:52:59.451Z,29.80
2022-08-03T23:55:48.703Z,29.80
2022-08-03T23:58:39.567Z,29.70
